KMIW

Marshalltown Municipal Airport

Marshalltown, Iowa, USA
METAR KMIW 172053Z AUTO 02003KT 7SM OVC034 03/M01 A2994 RMK AO2 SLP149 T00331011 55023
Observed Flight Rules
Dec-17 @ 20:53 UTC (42 minutes ago) Visual Flight Rules
Wind Visibility Clouds
20° at 3 knots 7 miles
  • Overcast at 3,400' AGL
Temperatures Readings
Current 3°C / 37°F
Dewpoint -1°C / 30°F
Humidity 75%
Altimeter 29.94" Hg
Pressure 1014.9 hPa
Elevation 296
METAR KMIW 172053Z AUTO 02003KT 7SM OVC034 03/M01 A2994 RMK AO2 SLP149 T00331011 55023
Observed Flight Rules
Dec-17 @ 20:53 UTC
(42 minutes ago)
VFR
Wind Visibility
20° at 3 knots 7 miles
Clouds
  • Overcast at 3,400' AGL
Temperature Dewpoint
3°C / 37°F -1°C / 30°F
Humidity Altimeter Pressure
75% 29.94" Hg 1014.9 hPa